sensor_id;sensor_type;location;lat;lon;timestamp;temperature;humidity
81935;DHT22;71405;47.674;-2.050;2023-07-20T00:01:12;22.70;75.90
81935;DHT22;71405;47.674;-2.050;2023-07-20T00:03:38;22.70;74.40
81935;DHT22;71405;47.674;-2.050;2023-07-20T00:06:04;22.70;74.20
81935;DHT22;71405;47.674;-2.050;2023-07-20T00:08:30;22.70;74.10
81935;DHT22;71405;47.674;-2.050;2023-07-20T00:10:56;22.70;74.50
81935;DHT22;71405;47.674;-2.050;2023-07-20T00:13:22;22.60;74.20
81935;DHT22;71405;47.674;-2.050;2023-07-20T00:15:48;22.60;73.80
81935;DHT22;71405;47.674;-2.050;2023-07-20T00:18:14;22.60;74.60
81935;DHT22;71405;47.674;-2.050;2023-07-20T00:20:40;22.70;76.00
81935;DHT22;71405;47.674;-2.050;2023-07-20T00:23:06;22.60;74.80
81935;DHT22;71405;47.674;-2.050;2023-07-20T00:25:32;22.60;74.20
81935;DHT22;71405;47.674;-2.050;2023-07-20T00:27:59;22.60;73.90
81935;DHT22;71405;47.674;-2.050;2023-07-20T00:30:24;22.60;74.00
81935;DHT22;71405;47.674;-2.050;2023-07-20T00:32:50;22.60;74.10
81935;DHT22;71405;47.674;-2.050;2023-07-20T00:35:16;22.60;73.50
81935;DHT22;71405;47.674;-2.050;2023-07-20T00:37:41;22.60;73.00
81935;DHT22;71405;47.674;-2.050;2023-07-20T00:40:07;22.60;72.70
81935;DHT22;71405;47.674;-2.050;2023-07-20T00:42:34;22.60;73.10
81935;DHT22;71405;47.674;-2.050;2023-07-20T00:44:59;22.60;72.40
81935;DHT22;71405;47.674;-2.050;2023-07-20T00:47:26;22.50;72.30
81935;DHT22;71405;47.674;-2.050;2023-07-20T00:49:53;22.50;72.80
81935;DHT22;71405;47.674;-2.050;2023-07-20T00:52:21;22.60;72.50
81935;DHT22;71405;47.674;-2.050;2023-07-20T00:54:47;22.50;72.20
81935;DHT22;71405;47.674;-2.050;2023-07-20T00:57:17;22.50;72.30
81935;DHT22;71405;47.674;-2.050;2023-07-20T00:59:44;22.50;72.50
81935;DHT22;71405;47.674;-2.050;2023-07-20T01:02:10;22.50;72.40
81935;DHT22;71405;47.674;-2.050;2023-07-20T01:04:36;22.50;72.20
81935;DHT22;71405;47.674;-2.050;2023-07-20T01:07:11;22.50;72.00
81935;DHT22;71405;47.674;-2.050;2023-07-20T01:09:52;22.50;72.40
81935;DHT22;71405;47.674;-2.050;2023-07-20T01:12:27;22.50;72.10
81935;DHT22;71405;47.674;-2.050;2023-07-20T01:14:55;22.50;72.20
81935;DHT22;71405;47.674;-2.050;2023-07-20T01:17:22;22.50;72.80
81935;DHT22;71405;47.674;-2.050;2023-07-20T01:19:49;22.50;72.70
81935;DHT22;71405;47.674;-2.050;2023-07-20T01:23:08;22.50;72.80
81935;DHT22;71405;47.674;-2.050;2023-07-20T01:33:47;22.50;72.80
81935;DHT22;71405;47.674;-2.050;2023-07-20T01:36:14;22.40;73.20
81935;DHT22;71405;47.674;-2.050;2023-07-20T01:38:42;22.40;72.10
81935;DHT22;71405;47.674;-2.050;2023-07-20T01:41:08;22.40;72.80
81935;DHT22;71405;47.674;-2.050;2023-07-20T01:43:34;22.40;72.50
81935;DHT22;71405;47.674;-2.050;2023-07-20T01:46:00;22.40;72.60
81935;DHT22;71405;47.674;-2.050;2023-07-20T01:48:26;22.40;71.70
81935;DHT22;71405;47.674;-2.050;2023-07-20T01:50:51;22.40;72.20
81935;DHT22;71405;47.674;-2.050;2023-07-20T01:53:17;22.40;72.90
81935;DHT22;71405;47.674;-2.050;2023-07-20T01:55:43;22.40;72.50
81935;DHT22;71405;47.674;-2.050;2023-07-20T01:58:09;22.40;72.50
81935;DHT22;71405;47.674;-2.050;2023-07-20T02:00:37;22.40;72.40
81935;DHT22;71405;47.674;-2.050;2023-07-20T02:03:02;22.40;72.20
81935;DHT22;71405;47.674;-2.050;2023-07-20T02:05:28;22.40;72.30
81935;DHT22;71405;47.674;-2.050;2023-07-20T02:07:54;22.40;72.00
81935;DHT22;71405;47.674;-2.050;2023-07-20T02:10:19;22.40;71.70
81935;DHT22;71405;47.674;-2.050;2023-07-20T02:12:46;22.30;71.60
81935;DHT22;71405;47.674;-2.050;2023-07-20T02:15:11;22.30;71.30
81935;DHT22;71405;47.674;-2.050;2023-07-20T02:17:39;22.30;71.50
81935;DHT22;71405;47.674;-2.050;2023-07-20T02:20:07;22.30;71.10
81935;DHT22;71405;47.674;-2.050;2023-07-20T02:22:36;22.30;71.40
81935;DHT22;71405;47.674;-2.050;2023-07-20T02:25:01;22.30;70.90
81935;DHT22;71405;47.674;-2.050;2023-07-20T02:27:27;22.30;71.40
81935;DHT22;71405;47.674;-2.050;2023-07-20T02:29:53;22.30;70.80
81935;DHT22;71405;47.674;-2.050;2023-07-20T02:32:18;22.30;71.00
81935;DHT22;71405;47.674;-2.050;2023-07-20T02:34:44;22.30;70.80
81935;DHT22;71405;47.674;-2.050;2023-07-20T02:37:10;22.30;71.20
81935;DHT22;71405;47.674;-2.050;2023-07-20T02:39:38;22.30;71.40
81935;DHT22;71405;47.674;-2.050;2023-07-20T02:42:04;22.30;71.00
81935;DHT22;71405;47.674;-2.050;2023-07-20T02:44:30;22.30;71.50
81935;DHT22;71405;47.674;-2.050;2023-07-20T02:46:56;22.30;71.70
81935;DHT22;71405;47.674;-2.050;2023-07-20T02:49:21;22.30;71.60
81935;DHT22;71405;47.674;-2.050;2023-07-20T02:51:47;22.30;71.50
81935;DHT22;71405;47.674;-2.050;2023-07-20T02:54:13;22.30;71.80
81935;DHT22;71405;47.674;-2.050;2023-07-20T02:56:38;22.30;71.40
81935;DHT22;71405;47.674;-2.050;2023-07-20T02:59:04;22.30;71.40
81935;DHT22;71405;47.674;-2.050;2023-07-20T03:01:30;22.30;71.80
81935;DHT22;71405;47.674;-2.050;2023-07-20T03:03:56;22.30;71.10
81935;DHT22;71405;47.674;-2.050;2023-07-20T03:06:21;22.30;71.80
81935;DHT22;71405;47.674;-2.050;2023-07-20T03:08:47;22.20;71.40
81935;DHT22;71405;47.674;-2.050;2023-07-20T03:11:14;22.20;71.00
81935;DHT22;71405;47.674;-2.050;2023-07-20T03:13:43;22.20;71.00
81935;DHT22;71405;47.674;-2.050;2023-07-20T03:16:09;22.20;71.60
81935;DHT22;71405;47.674;-2.050;2023-07-20T03:18:39;22.20;71.30
81935;DHT22;71405;47.674;-2.050;2023-07-20T03:21:06;22.20;70.90
81935;DHT22;71405;47.674;-2.050;2023-07-20T03:23:32;22.20;70.90
81935;DHT22;71405;47.674;-2.050;2023-07-20T03:25:57;22.20;71.60
81935;DHT22;71405;47.674;-2.050;2023-07-20T03:28:23;22.20;71.00
81935;DHT22;71405;47.674;-2.050;2023-07-20T03:30:56;22.20;71.00
81935;DHT22;71405;47.674;-2.050;2023-07-20T03:33:24;22.20;71.20
81935;DHT22;71405;47.674;-2.050;2023-07-20T03:35:50;22.20;71.40
81935;DHT22;71405;47.674;-2.050;2023-07-20T03:38:16;22.20;72.30
81935;DHT22;71405;47.674;-2.050;2023-07-20T03:40:55;22.20;71.00
81935;DHT22;71405;47.674;-2.050;2023-07-20T03:43:24;22.20;71.50
81935;DHT22;71405;47.674;-2.050;2023-07-20T03:45:51;22.20;72.10
81935;DHT22;71405;47.674;-2.050;2023-07-20T03:48:19;22.10;71.80
81935;DHT22;71405;47.674;-2.050;2023-07-20T03:50:45;22.10;71.40
81935;DHT22;71405;47.674;-2.050;2023-07-20T03:53:12;22.10;71.00
81935;DHT22;71405;47.674;-2.050;2023-07-20T03:55:38;22.10;70.60
81935;DHT22;71405;47.674;-2.050;2023-07-20T03:58:06;22.10;70.90
81935;DHT22;71405;47.674;-2.050;2023-07-20T04:00:32;22.10;70.70
81935;DHT22;71405;47.674;-2.050;2023-07-20T04:02:57;22.10;71.00
81935;DHT22;71405;47.674;-2.050;2023-07-20T04:05:24;22.10;71.00
81935;DHT22;71405;47.674;-2.050;2023-07-20T04:07:51;22.10;70.80
81935;DHT22;71405;47.674;-2.050;2023-07-20T04:10:17;22.10;71.00
81935;DHT22;71405;47.674;-2.050;2023-07-20T04:12:44;22.10;70.30
81935;DHT22;71405;47.674;-2.050;2023-07-20T04:15:10;22.10;70.30
81935;DHT22;71405;47.674;-2.050;2023-07-20T04:17:36;22.10;70.50
81935;DHT22;71405;47.674;-2.050;2023-07-20T04:20:02;22.10;70.30
81935;DHT22;71405;47.674;-2.050;2023-07-20T04:22:28;22.10;70.90
81935;DHT22;71405;47.674;-2.050;2023-07-20T04:24:54;22.10;70.50
81935;DHT22;71405;47.674;-2.050;2023-07-20T04:27:19;22.10;71.10
81935;DHT22;71405;47.674;-2.050;2023-07-20T04:29:45;22.10;70.60
81935;DHT22;71405;47.674;-2.050;2023-07-20T04:32:11;22.10;72.40
81935;DHT22;71405;47.674;-2.050;2023-07-20T04:34:36;22.10;72.40
81935;DHT22;71405;47.674;-2.050;2023-07-20T04:37:03;22.10;73.90
81935;DHT22;71405;47.674;-2.050;2023-07-20T04:39:29;22.10;73.00
81935;DHT22;71405;47.674;-2.050;2023-07-20T04:41:56;22.10;73.50
81935;DHT22;71405;47.674;-2.050;2023-07-20T04:44:21;22.10;72.50
81935;DHT22;71405;47.674;-2.050;2023-07-20T04:46:47;22.00;71.60
81935;DHT22;71405;47.674;-2.050;2023-07-20T04:49:13;22.00;71.20
81935;DHT22;71405;47.674;-2.050;2023-07-20T04:51:39;22.00;74.10
81935;DHT22;71405;47.674;-2.050;2023-07-20T04:54:05;22.10;73.70
81935;DHT22;71405;47.674;-2.050;2023-07-20T04:56:30;22.10;74.30
81935;DHT22;71405;47.674;-2.050;2023-07-20T04:58:56;22.10;74.00
81935;DHT22;71405;47.674;-2.050;2023-07-20T05:01:23;22.00;73.30
81935;DHT22;71405;47.674;-2.050;2023-07-20T05:03:48;22.00;73.30
81935;DHT22;71405;47.674;-2.050;2023-07-20T05:06:15;22.10;73.00
81935;DHT22;71405;47.674;-2.050;2023-07-20T05:08:40;22.00;73.70
81935;DHT22;71405;47.674;-2.050;2023-07-20T05:11:06;22.00;74.10
81935;DHT22;71405;47.674;-2.050;2023-07-20T05:13:33;22.00;73.20
81935;DHT22;71405;47.674;-2.050;2023-07-20T05:15:59;22.00;73.60
81935;DHT22;71405;47.674;-2.050;2023-07-20T05:18:24;22.00;73.80
81935;DHT22;71405;47.674;-2.050;2023-07-20T05:20:50;22.00;72.20
81935;DHT22;71405;47.674;-2.050;2023-07-20T05:23:18;22.00;71.40
81935;DHT22;71405;47.674;-2.050;2023-07-20T05:25:44;22.00;72.90
81935;DHT22;71405;47.674;-2.050;2023-07-20T05:28:10;22.00;71.90
81935;DHT22;71405;47.674;-2.050;2023-07-20T05:30:35;22.00;73.00
81935;DHT22;71405;47.674;-2.050;2023-07-20T05:33:01;22.00;73.40
81935;DHT22;71405;47.674;-2.050;2023-07-20T05:35:27;22.00;72.90
81935;DHT22;71405;47.674;-2.050;2023-07-20T05:37:53;22.10;73.10
81935;DHT22;71405;47.674;-2.050;2023-07-20T05:40:18;22.00;73.60
81935;DHT22;71405;47.674;-2.050;2023-07-20T05:42:45;22.10;72.50
81935;DHT22;71405;47.674;-2.050;2023-07-20T05:45:17;22.10;73.80
81935;DHT22;71405;47.674;-2.050;2023-07-20T05:47:43;22.10;76.10
81935;DHT22;71405;47.674;-2.050;2023-07-20T05:50:09;22.10;74.00
81935;DHT22;71405;47.674;-2.050;2023-07-20T05:52:35;22.10;72.80
81935;DHT22;71405;47.674;-2.050;2023-07-20T05:55:01;22.10;73.50
81935;DHT22;71405;47.674;-2.050;2023-07-20T05:57:27;22.10;71.70
81935;DHT22;71405;47.674;-2.050;2023-07-20T05:59:52;22.10;74.80
81935;DHT22;71405;47.674;-2.050;2023-07-20T06:02:18;22.10;73.40
81935;DHT22;71405;47.674;-2.050;2023-07-20T06:04:44;22.00;71.80
81935;DHT22;71405;47.674;-2.050;2023-07-20T06:07:10;22.10;71.20
81935;DHT22;71405;47.674;-2.050;2023-07-20T06:09:36;22.00;72.50
81935;DHT22;71405;47.674;-2.050;2023-07-20T06:12:01;22.00;73.60
81935;DHT22;71405;47.674;-2.050;2023-07-20T06:14:27;22.10;73.50
81935;DHT22;71405;47.674;-2.050;2023-07-20T06:16:53;22.00;72.90
81935;DHT22;71405;47.674;-2.050;2023-07-20T06:19:18;22.00;74.50
81935;DHT22;71405;47.674;-2.050;2023-07-20T21:51:30;22.80;75.90
81935;DHT22;71405;47.674;-2.050;2023-07-20T21:53:55;22.40;76.50
81935;DHT22;71405;47.674;-2.050;2023-07-20T21:56:21;22.40;76.80
81935;DHT22;71405;47.674;-2.050;2023-07-20T21:58:47;22.40;77.40
81935;DHT22;71405;47.674;-2.050;2023-07-20T22:01:12;22.40;77.60
81935;DHT22;71405;47.674;-2.050;2023-07-20T22:03:38;22.40;76.70
81935;DHT22;71405;47.674;-2.050;2023-07-20T22:06:04;22.40;77.40
81935;DHT22;71405;47.674;-2.050;2023-07-20T22:08:30;22.40;77.20
81935;DHT22;71405;47.674;-2.050;2023-07-20T22:10:55;22.40;77.20
81935;DHT22;71405;47.674;-2.050;2023-07-20T22:13:22;22.30;77.20
81935;DHT22;71405;47.674;-2.050;2023-07-20T22:15:47;22.40;77.10
81935;DHT22;71405;47.674;-2.050;2023-07-20T22:18:15;22.40;77.00
81935;DHT22;71405;47.674;-2.050;2023-07-20T22:20:41;22.40;77.20
81935;DHT22;71405;47.674;-2.050;2023-07-20T22:23:07;22.30;76.50
81935;DHT22;71405;47.674;-2.050;2023-07-20T22:25:32;22.30;77.10
81935;DHT22;71405;47.674;-2.050;2023-07-20T22:27:58;22.30;77.60
81935;DHT22;71405;47.674;-2.050;2023-07-20T22:30:24;22.30;77.20
81935;DHT22;71405;47.674;-2.050;2023-07-20T22:32:50;22.30;77.00
81935;DHT22;71405;47.674;-2.050;2023-07-20T22:35:16;22.30;77.00
81935;DHT22;71405;47.674;-2.050;2023-07-20T22:37:42;22.30;76.40
81935;DHT22;71405;47.674;-2.050;2023-07-20T22:40:08;22.30;77.00
81935;DHT22;71405;47.674;-2.050;2023-07-20T22:42:35;22.30;77.40
81935;DHT22;71405;47.674;-2.050;2023-07-20T22:45:02;22.30;77.10
81935;DHT22;71405;47.674;-2.050;2023-07-20T22:47:30;22.30;76.90
81935;DHT22;71405;47.674;-2.050;2023-07-20T22:49:55;22.30;77.10
81935;DHT22;71405;47.674;-2.050;2023-07-20T22:52:23;22.30;77.80
81935;DHT22;71405;47.674;-2.050;2023-07-20T22:54:48;22.30;76.70
81935;DHT22;71405;47.674;-2.050;2023-07-20T22:57:14;22.30;76.10
81935;DHT22;71405;47.674;-2.050;2023-07-20T22:59:40;22.30;76.10
81935;DHT22;71405;47.674;-2.050;2023-07-20T23:02:06;22.30;76.00
81935;DHT22;71405;47.674;-2.050;2023-07-20T23:04:33;22.30;76.40
81935;DHT22;71405;47.674;-2.050;2023-07-20T23:06:59;22.30;76.60
81935;DHT22;71405;47.674;-2.050;2023-07-20T23:09:25;22.20;76.10
81935;DHT22;71405;47.674;-2.050;2023-07-20T23:11:51;22.30;76.70
81935;DHT22;71405;47.674;-2.050;2023-07-20T23:14:17;22.20;76.40
81935;DHT22;71405;47.674;-2.050;2023-07-20T23:16:43;22.20;76.50
81935;DHT22;71405;47.674;-2.050;2023-07-20T23:19:09;22.20;76.00
81935;DHT22;71405;47.674;-2.050;2023-07-20T23:21:35;22.20;76.60
81935;DHT22;71405;47.674;-2.050;2023-07-20T23:24:01;22.20;76.00
81935;DHT22;71405;47.674;-2.050;2023-07-20T23:26:27;22.20;75.70
81935;DHT22;71405;47.674;-2.050;2023-07-20T23:28:53;22.20;76.30
81935;DHT22;71405;47.674;-2.050;2023-07-20T23:31:19;22.20;76.80
81935;DHT22;71405;47.674;-2.050;2023-07-20T23:33:44;22.20;76.90
81935;DHT22;71405;47.674;-2.050;2023-07-20T23:36:10;22.20;76.80
81935;DHT22;71405;47.674;-2.050;2023-07-20T23:38:37;22.20;77.40
81935;DHT22;71405;47.674;-2.050;2023-07-20T23:41:03;22.20;76.80
81935;DHT22;71405;47.674;-2.050;2023-07-20T23:43:36;22.20;76.70
81935;DHT22;71405;47.674;-2.050;2023-07-20T23:46:03;22.20;77.30
81935;DHT22;71405;47.674;-2.050;2023-07-20T23:48:34;22.20;77.40
81935;DHT22;71405;47.674;-2.050;2023-07-20T23:51:15;22.20;77.40
81935;DHT22;71405;47.674;-2.050;2023-07-20T23:53:44;22.20;77.10
81935;DHT22;71405;47.674;-2.050;2023-07-20T23:56:15;22.20;77.30
81935;DHT22;71405;47.674;-2.050;2023-07-20T23:58:41;22.20;76.90
